sensor_id;sensor_type;location;lat;lon;timestamp;pressure;altitude;pressure_sealevel;temperature;humidity
10008;BME280;5043;41.766;26.204;2023-04-21T00:01:12;100535.09;;;12.52;100.00
10008;BME280;5043;41.766;26.204;2023-04-21T00:03:37;100483.78;;;12.43;100.00
10008;BME280;5043;41.766;26.204;2023-04-21T00:06:04;100527.97;;;12.52;100.00
10008;BME280;5043;41.766;26.204;2023-04-21T00:08:34;100534.97;;;12.53;100.00
10008;BME280;5043;41.766;26.204;2023-04-21T00:11:05;100477.88;;;12.19;100.00
10008;BME280;5043;41.766;26.204;2023-04-21T00:13:31;100526.81;;;12.45;100.00
10008;BME280;5043;41.766;26.204;2023-04-21T00:15:56;100534.66;;;12.47;100.00
10008;BME280;5043;41.766;26.204;2023-04-21T00:18:22;100535.97;;;12.41;100.00
10008;BME280;5043;41.766;26.204;2023-04-21T00:20:48;100531.44;;;12.32;100.00
10008;BME280;5043;41.766;26.204;2023-04-21T00:23:13;100546.00;;;12.26;100.00
10008;BME280;5043;41.766;26.204;2023-04-21T00:25:39;100557.47;;;12.16;100.00
10008;BME280;5043;41.766;26.204;2023-04-21T00:28:04;100476.09;;;11.77;100.00
10008;BME280;5043;41.766;26.204;2023-04-21T00:30:29;100488.09;;;11.81;100.00
10008;BME280;5043;41.766;26.204;2023-04-21T00:32:55;100539.09;;;12.14;100.00
10008;BME280;5043;41.766;26.204;2023-04-21T00:35:20;100565.78;;;12.11;100.00
10008;BME280;5043;41.766;26.204;2023-04-21T00:37:46;100524.78;;;12.06;100.00
10008;BME280;5043;41.766;26.204;2023-04-21T00:40:11;100516.38;;;12.01;100.00
10008;BME280;5043;41.766;26.204;2023-04-21T00:42:37;100522.03;;;12.07;100.00
10008;BME280;5043;41.766;26.204;2023-04-21T00:45:03;100523.31;;;12.13;100.00
10008;BME280;5043;41.766;26.204;2023-04-21T00:47:29;100513.53;;;11.93;100.00
10008;BME280;5043;41.766;26.204;2023-04-21T00:49:56;100536.25;;;11.95;100.00
10008;BME280;5043;41.766;26.204;2023-04-21T00:52:22;100513.63;;;11.91;100.00
10008;BME280;5043;41.766;26.204;2023-04-21T00:54:47;100521.84;;;11.88;100.00
10008;BME280;5043;41.766;26.204;2023-04-21T00:57:13;100528.44;;;11.83;100.00
10008;BME280;5043;41.766;26.204;2023-04-21T00:59:39;100509.97;;;11.71;100.00
10008;BME280;5043;41.766;26.204;2023-04-21T01:02:05;100508.03;;;11.62;100.00
10008;BME280;5043;41.766;26.204;2023-04-21T01:04:30;100500.44;;;11.47;100.00
10008;BME280;5043;41.766;26.204;2023-04-21T01:07:05;100500.31;;;11.59;100.00
10008;BME280;5043;41.766;26.204;2023-04-21T01:09:32;100437.56;;;11.19;100.00
10008;BME280;5043;41.766;26.204;2023-04-21T01:12:06;100506.56;;;11.58;100.00
10008;BME280;5043;41.766;26.204;2023-04-21T01:14:33;100502.72;;;11.51;100.00
10008;BME280;5043;41.766;26.204;2023-04-21T01:16:59;100498.88;;;11.44;100.00
10008;BME280;5043;41.766;26.204;2023-04-21T01:19:27;100485.09;;;11.41;100.00
10008;BME280;5043;41.766;26.204;2023-04-21T01:21:54;100496.59;;;11.40;100.00
10008;BME280;5043;41.766;26.204;2023-04-21T01:24:43;100498.53;;;11.27;100.00
10008;BME280;5043;41.766;26.204;2023-04-21T01:27:14;100489.06;;;11.24;100.00
10008;BME280;5043;41.766;26.204;2023-04-21T01:29:42;100493.84;;;11.30;100.00
10008;BME280;5043;41.766;26.204;2023-04-21T01:32:11;100438.16;;;10.89;100.00
10008;BME280;5043;41.766;26.204;2023-04-21T01:34:37;100502.38;;;11.45;100.00
10008;BME280;5043;41.766;26.204;2023-04-21T01:37:07;100489.28;;;11.21;100.00
10008;BME280;5043;41.766;26.204;2023-04-21T01:39:32;100493.38;;;11.25;100.00
10008;BME280;5043;41.766;26.204;2023-04-21T01:41:58;100517.38;;;11.44;100.00
10008;BME280;5043;41.766;26.204;2023-04-21T01:44:25;100503.31;;;11.33;100.00
10008;BME280;5043;41.766;26.204;2023-04-21T01:46:51;100485.56;;;11.13;100.00
10008;BME280;5043;41.766;26.204;2023-04-21T01:49:17;100492.41;;;11.04;100.00
10008;BME280;5043;41.766;26.204;2023-04-21T01:51:42;100459.50;;;10.86;100.00
10008;BME280;5043;41.766;26.204;2023-04-21T01:54:08;100505.63;;;11.04;100.00
10008;BME280;5043;41.766;26.204;2023-04-21T01:56:33;100496.56;;;10.95;100.00
10008;BME280;5043;41.766;26.204;2023-04-21T01:58:59;100515.78;;;10.97;100.00
10008;BME280;5043;41.766;26.204;2023-04-21T02:01:24;100506.66;;;10.90;100.00
10008;BME280;5043;41.766;26.204;2023-04-21T02:03:50;100449.28;;;10.59;100.00
10008;BME280;5043;41.766;26.204;2023-04-21T02:06:15;100512.28;;;10.86;100.00
10008;BME280;5043;41.766;26.204;2023-04-21T02:08:42;100504.13;;;10.78;100.00
10008;BME280;5043;41.766;26.204;2023-04-21T02:11:07;100502.91;;;10.82;100.00
10008;BME280;5043;41.766;26.204;2023-04-21T02:13:33;100501.00;;;10.84;100.00
10008;BME280;5043;41.766;26.204;2023-04-21T02:15:58;100496.78;;;10.81;100.00
10008;BME280;5043;41.766;26.204;2023-04-21T02:18:23;100499.34;;;10.94;100.00
10008;BME280;5043;41.766;26.204;2023-04-21T02:20:50;100451.56;;;10.75;100.00
10008;BME280;5043;41.766;26.204;2023-04-21T02:23:15;100494.19;;;10.92;100.00
10008;BME280;5043;41.766;26.204;2023-04-21T02:25:41;100497.56;;;10.94;100.00
10008;BME280;5043;41.766;26.204;2023-04-21T02:28:06;100489.50;;;10.96;100.00
10008;BME280;5043;41.766;26.204;2023-04-21T02:30:32;100499.06;;;10.86;100.00
10008;BME280;5043;41.766;26.204;2023-04-21T02:32:58;100466.19;;;10.68;100.00
10008;BME280;5043;41.766;26.204;2023-04-21T02:35:23;100487.81;;;10.84;100.00
10008;BME280;5043;41.766;26.204;2023-04-21T02:37:49;100451.28;;;10.56;100.00
10008;BME280;5043;41.766;26.204;2023-04-21T02:40:14;100442.94;;;10.62;100.00
10008;BME280;5043;41.766;26.204;2023-04-21T02:42:40;100481.22;;;10.78;100.00
10008;BME280;5043;41.766;26.204;2023-04-21T02:45:05;100503.13;;;10.79;100.00
10008;BME280;5043;41.766;26.204;2023-04-21T02:47:31;100431.03;;;10.45;100.00
10008;BME280;5043;41.766;26.204;2023-04-21T02:49:56;100478.69;;;10.77;100.00
10008;BME280;5043;41.766;26.204;2023-04-21T02:52:22;100475.78;;;10.69;100.00
10008;BME280;5043;41.766;26.204;2023-04-21T02:54:48;100451.03;;;10.48;100.00
10008;BME280;5043;41.766;26.204;2023-04-21T02:57:14;100489.44;;;10.63;100.00
10008;BME280;5043;41.766;26.204;2023-04-21T02:59:39;100489.34;;;10.64;100.00
10008;BME280;5043;41.766;26.204;2023-04-21T03:02:05;100463.56;;;10.33;100.00
10008;BME280;5043;41.766;26.204;2023-04-21T03:04:30;100514.78;;;10.42;100.00
10008;BME280;5043;41.766;26.204;2023-04-21T03:06:56;100501.81;;;10.38;100.00
10008;BME280;5043;41.766;26.204;2023-04-21T03:09:22;100506.19;;;10.27;100.00
10008;BME280;5043;41.766;26.204;2023-04-21T03:11:47;100453.50;;;10.03;100.00
10008;BME280;5043;41.766;26.204;2023-04-21T03:14:12;100497.13;;;10.31;100.00
10008;BME280;5043;41.766;26.204;2023-04-21T03:16:38;100459.53;;;9.93;100.00
10008;BME280;5043;41.766;26.204;2023-04-21T03:19:03;100511.72;;;10.24;100.00
10008;BME280;5043;41.766;26.204;2023-04-21T03:21:29;100525.88;;;10.10;100.00
10008;BME280;5043;41.766;26.204;2023-04-21T03:23:56;100489.44;;;9.92;100.00
10008;BME280;5043;41.766;26.204;2023-04-21T03:26:21;100479.41;;;9.73;100.00
10008;BME280;5043;41.766;26.204;2023-04-21T03:28:46;100515.50;;;9.96;100.00
10008;BME280;5043;41.766;26.204;2023-04-21T03:31:12;100512.94;;;9.95;100.00
10008;BME280;5043;41.766;26.204;2023-04-21T03:33:37;100508.00;;;9.90;100.00
10008;BME280;5043;41.766;26.204;2023-04-21T03:36:03;100550.69;;;9.95;100.00
10008;BME280;5043;41.766;26.204;2023-04-21T03:38:28;100464.78;;;9.69;100.00
10008;BME280;5043;41.766;26.204;2023-04-21T03:40:54;100464.38;;;9.62;100.00
10008;BME280;5043;41.766;26.204;2023-04-21T03:43:19;100542.56;;;9.98;100.00
10008;BME280;5043;41.766;26.204;2023-04-21T03:45:45;100529.91;;;10.03;100.00
10008;BME280;5043;41.766;26.204;2023-04-21T03:48:10;100520.59;;;10.10;100.00
10008;BME280;5043;41.766;26.204;2023-04-21T03:50:37;100499.75;;;10.07;100.00
10008;BME280;5043;41.766;26.204;2023-04-21T03:53:03;100525.13;;;10.08;100.00
10008;BME280;5043;41.766;26.204;2023-04-21T03:55:28;100531.56;;;10.04;100.00
10008;BME280;5043;41.766;26.204;2023-04-21T03:57:54;100538.97;;;9.99;100.00
10008;BME280;5043;41.766;26.204;2023-04-21T04:00:19;100476.50;;;9.65;100.00
10008;BME280;5043;41.766;26.204;2023-04-21T04:02:45;100522.81;;;10.04;100.00
10008;BME280;5043;41.766;26.204;2023-04-21T04:05:11;100564.44;;;10.24;100.00
10008;BME280;5043;41.766;26.204;2023-04-21T04:07:36;100541.81;;;10.32;100.00
10008;BME280;5043;41.766;26.204;2023-04-21T04:10:02;100565.28;;;10.24;100.00
10008;BME280;5043;41.766;26.204;2023-04-21T04:12:27;100490.94;;;9.96;100.00
10008;BME280;5043;41.766;26.204;2023-04-21T04:14:53;100545.69;;;10.40;100.00
10008;BME280;5043;41.766;26.204;2023-04-21T04:17:18;100572.63;;;10.32;100.00
10008;BME280;5043;41.766;26.204;2023-04-21T04:19:44;100552.19;;;10.23;100.00
10008;BME280;5043;41.766;26.204;2023-04-21T04:22:09;100571.50;;;10.23;100.00
10008;BME280;5043;41.766;26.204;2023-04-21T04:24:34;100558.84;;;10.28;100.00
10008;BME280;5043;41.766;26.204;2023-04-21T04:27:00;100577.34;;;10.40;100.00
10008;BME280;5043;41.766;26.204;2023-04-21T04:29:28;100491.91;;;10.18;100.00
10008;BME280;5043;41.766;26.204;2023-04-21T04:31:53;100549.50;;;10.59;100.00
10008;BME280;5043;41.766;26.204;2023-04-21T04:34:19;100547.59;;;10.61;100.00
10008;BME280;5043;41.766;26.204;2023-04-21T04:36:45;100551.81;;;10.64;100.00
10008;BME280;5043;41.766;26.204;2023-04-21T04:39:12;100551.69;;;10.76;100.00
10008;BME280;5043;41.766;26.204;2023-04-21T04:41:38;100549.19;;;10.75;100.00
10008;BME280;5043;41.766;26.204;2023-04-21T04:44:04;100504.31;;;10.29;100.00
10008;BME280;5043;41.766;26.204;2023-04-21T04:46:31;100564.63;;;10.57;100.00
10008;BME280;5043;41.766;26.204;2023-04-21T04:48:56;100552.19;;;10.70;100.00
10008;BME280;5043;41.766;26.204;2023-04-21T04:51:22;100500.88;;;10.40;100.00
10008;BME280;5043;41.766;26.204;2023-04-21T04:53:48;100549.31;;;10.73;100.00
10008;BME280;5043;41.766;26.204;2023-04-21T04:56:13;100541.34;;;10.97;100.00
10008;BME280;5043;41.766;26.204;2023-04-21T04:58:39;100586.22;;;10.97;100.00
10008;BME280;5043;41.766;26.204;2023-04-21T05:01:11;100546.97;;;10.92;100.00
10008;BME280;5043;41.766;26.204;2023-04-21T05:03:37;100555.28;;;11.21;100.00
10008;BME280;5043;41.766;26.204;2023-04-21T05:06:02;100499.97;;;11.09;100.00
10008;BME280;5043;41.766;26.204;2023-04-21T05:08:28;100549.69;;;11.59;100.00
10008;BME280;5043;41.766;26.204;2023-04-21T05:10:53;100562.88;;;11.59;100.00
10008;BME280;5043;41.766;26.204;2023-04-21T05:13:18;100521.22;;;11.40;100.00
10008;BME280;5043;41.766;26.204;2023-04-21T05:15:44;100558.47;;;11.93;100.00
10008;BME280;5043;41.766;26.204;2023-04-21T05:18:09;100564.81;;;12.01;100.00
10008;BME280;5043;41.766;26.204;2023-04-21T05:20:35;100531.25;;;12.13;100.00
10008;BME280;5043;41.766;26.204;2023-04-21T05:23:00;100594.91;;;12.43;100.00
10008;BME280;5043;41.766;26.204;2023-04-21T05:25:26;100543.16;;;12.50;100.00
10008;BME280;5043;41.766;26.204;2023-04-21T05:27:51;100560.19;;;12.68;100.00
10008;BME280;5043;41.766;26.204;2023-04-21T05:30:17;100561.00;;;12.69;100.00
10008;BME280;5043;41.766;26.204;2023-04-21T05:32:42;100553.19;;;12.67;100.00
10008;BME280;5043;41.766;26.204;2023-04-21T05:35:08;100573.50;;;12.98;100.00
10008;BME280;5043;41.766;26.204;2023-04-21T05:37:34;100558.66;;;13.28;100.00
10008;BME280;5043;41.766;26.204;2023-04-21T05:39:59;100470.75;;;12.92;100.00
10008;BME280;5043;41.766;26.204;2023-04-21T05:42:24;100497.59;;;13.29;100.00
10008;BME280;5043;41.766;26.204;2023-04-21T05:44:50;100550.72;;;13.58;100.00
10008;BME280;5043;41.766;26.204;2023-04-21T05:47:15;100556.75;;;13.69;100.00
10008;BME280;5043;41.766;26.204;2023-04-21T05:49:41;100540.19;;;13.77;100.00
10008;BME280;5043;41.766;26.204;2023-04-21T05:52:09;100551.38;;;13.81;100.00
10008;BME280;5043;41.766;26.204;2023-04-21T05:54:34;100546.53;;;14.05;100.00
10008;BME280;5043;41.766;26.204;2023-04-21T05:57:00;100544.25;;;14.30;100.00
10008;BME280;5043;41.766;26.204;2023-04-21T05:59:25;100541.19;;;14.64;100.00
10008;BME280;5043;41.766;26.204;2023-04-21T06:01:51;100576.69;;;14.91;98.45
10008;BME280;5043;41.766;26.204;2023-04-21T06:04:16;100547.00;;;15.15;97.21
10008;BME280;5043;41.766;26.204;2023-04-21T06:06:42;100560.84;;;15.28;96.09
10008;BME280;5043;41.766;26.204;2023-04-21T06:09:08;100530.91;;;15.26;95.22
10008;BME280;5043;41.766;26.204;2023-04-21T06:11:33;100561.25;;;15.79;93.59
10008;BME280;5043;41.766;26.204;2023-04-21T06:13:59;100521.50;;;15.68;92.93
10008;BME280;5043;41.766;26.204;2023-04-21T06:16:26;100561.59;;;15.94;93.95
10008;BME280;5043;41.766;26.204;2023-04-21T06:18:52;100555.06;;;16.06;93.47
10008;BME280;5043;41.766;26.204;2023-04-21T06:21:17;100521.38;;;15.70;93.41
10008;BME280;5043;41.766;26.204;2023-04-21T06:23:43;100549.63;;;16.08;92.82
10008;BME280;5043;41.766;26.204;2023-04-21T06:26:08;100578.47;;;16.30;92.45
10008;BME280;5043;41.766;26.204;2023-04-21T06:28:35;100580.69;;;16.34;92.08
10008;BME280;5043;41.766;26.204;2023-04-21T06:31:03;100558.16;;;16.29;92.08
10008;BME280;5043;41.766;26.204;2023-04-21T06:33:29;100569.50;;;16.48;91.76
10008;BME280;5043;41.766;26.204;2023-04-21T06:35:55;100562.53;;;16.65;91.57
10008;BME280;5043;41.766;26.204;2023-04-21T06:38:20;100565.28;;;16.56;91.88
10008;BME280;5043;41.766;26.204;2023-04-21T06:40:46;100535.78;;;16.22;92.72
10008;BME280;5043;41.766;26.204;2023-04-21T06:43:12;100558.44;;;16.53;93.48
10008;BME280;5043;41.766;26.204;2023-04-21T06:45:37;100567.56;;;16.68;93.33
10008;BME280;5043;41.766;26.204;2023-04-21T06:48:03;100568.84;;;16.99;90.61
10008;BME280;5043;41.766;26.204;2023-04-21T06:50:29;100558.16;;;17.17;88.32
10008;BME280;5043;41.766;26.204;2023-04-21T06:52:54;100576.63;;;17.18;86.82
10008;BME280;5043;41.766;26.204;2023-04-21T06:55:19;100535.09;;;16.90;87.13
10008;BME280;5043;41.766;26.204;2023-04-21T06:57:45;100593.69;;;17.26;87.25
10008;BME280;5043;41.766;26.204;2023-04-21T07:00:11;100580.03;;;17.46;85.28
10008;BME280;5043;41.766;26.204;2023-04-21T07:02:38;100565.91;;;17.54;84.42
10008;BME280;5043;41.766;26.204;2023-04-21T07:05:03;100566.13;;;17.60;84.33
10008;BME280;5043;41.766;26.204;2023-04-21T07:07:29;100559.50;;;17.72;84.17
10008;BME280;5043;41.766;26.204;2023-04-21T07:09:54;100602.19;;;17.98;83.32
10008;BME280;5043;41.766;26.204;2023-04-21T07:12:20;100588.25;;;17.86;83.82
10008;BME280;5043;41.766;26.204;2023-04-21T07:14:45;100585.91;;;17.83;84.88
10008;BME280;5043;41.766;26.204;2023-04-21T07:17:10;100586.47;;;17.95;82.41
10008;BME280;5043;41.766;26.204;2023-04-21T07:19:36;100541.19;;;17.77;82.29
10008;BME280;5043;41.766;26.204;2023-04-21T07:22:02;100581.41;;;18.26;82.38
10008;BME280;5043;41.766;26.204;2023-04-21T07:24:27;100539.53;;;17.84;81.33
10008;BME280;5043;41.766;26.204;2023-04-21T07:26:52;100563.84;;;18.07;80.64
10008;BME280;5043;41.766;26.204;2023-04-21T07:29:18;100585.22;;;18.15;77.54
10008;BME280;5043;41.766;26.204;2023-04-21T07:31:43;100586.84;;;18.08;78.04
10008;BME280;5043;41.766;26.204;2023-04-21T07:34:11;100593.88;;;18.17;78.17
10008;BME280;5043;41.766;26.204;2023-04-21T07:36:36;100603.94;;;18.23;77.22
10008;BME280;5043;41.766;26.204;2023-04-21T07:39:02;100587.88;;;18.15;75.53
10008;BME280;5043;41.766;26.204;2023-04-21T07:41:28;100582.84;;;18.04;75.54
10008;BME280;5043;41.766;26.204;2023-04-21T07:43:53;100585.38;;;18.22;76.46
10008;BME280;5043;41.766;26.204;2023-04-21T07:46:19;100583.44;;;18.32;76.24
10008;BME280;5043;41.766;26.204;2023-04-21T07:48:48;100571.91;;;18.23;75.07
10008;BME280;5043;41.766;26.204;2023-04-21T07:51:13;100578.56;;;18.27;75.45
10008;BME280;5043;41.766;26.204;2023-04-21T07:53:42;100588.69;;;18.49;75.08
10008;BME280;5043;41.766;26.204;2023-04-21T07:56:07;100565.47;;;18.58;73.39
10008;BME280;5043;41.766;26.204;2023-04-21T07:58:33;100581.19;;;18.69;73.52
10008;BME280;5043;41.766;26.204;2023-04-21T08:00:58;100529.41;;;18.54;71.33
10008;BME280;5043;41.766;26.204;2023-04-21T08:03:24;100589.56;;;18.66;70.89
10008;BME280;5043;41.766;26.204;2023-04-21T08:05:49;100563.00;;;18.57;71.32
10008;BME280;5043;41.766;26.204;2023-04-21T08:08:15;100552.63;;;18.70;71.65
10008;BME280;5043;41.766;26.204;2023-04-21T08:10:44;100572.69;;;18.90;71.47
10008;BME280;5043;41.766;26.204;2023-04-21T08:13:10;100551.28;;;18.90;70.40
10008;BME280;5043;41.766;26.204;2023-04-21T08:15:35;100553.47;;;19.10;66.80
10008;BME280;5043;41.766;26.204;2023-04-21T08:18:01;100539.25;;;19.02;65.17
10008;BME280;5043;41.766;26.204;2023-04-21T08:20:27;100544.41;;;19.28;66.69
10008;BME280;5043;41.766;26.204;2023-04-21T08:22:52;100542.25;;;19.39;64.89
10008;BME280;5043;41.766;26.204;2023-04-21T08:25:18;100546.94;;;19.45;65.25
10008;BME280;5043;41.766;26.204;2023-04-21T08:27:43;100545.56;;;19.57;65.36
10008;BME280;5043;41.766;26.204;2023-04-21T08:30:09;100545.56;;;19.49;63.82
10008;BME280;5043;41.766;26.204;2023-04-21T08:32:35;100546.38;;;19.58;63.67
10008;BME280;5043;41.766;26.204;2023-04-21T08:35:00;100534.69;;;19.51;63.30
10008;BME280;5043;41.766;26.204;2023-04-21T08:37:26;100534.56;;;19.36;60.50
10008;BME280;5043;41.766;26.204;2023-04-21T08:39:51;100491.59;;;19.21;61.22
10008;BME280;5043;41.766;26.204;2023-04-21T08:42:18;100533.03;;;19.34;62.06
10008;BME280;5043;41.766;26.204;2023-04-21T08:44:44;100546.88;;;19.61;61.40
10008;BME280;5043;41.766;26.204;2023-04-21T08:47:11;100541.13;;;19.72;60.80
10008;BME280;5043;41.766;26.204;2023-04-21T08:49:37;100522.38;;;19.80;60.69
10008;BME280;5043;41.766;26.204;2023-04-21T08:52:03;100521.00;;;19.93;58.73
10008;BME280;5043;41.766;26.204;2023-04-21T08:54:29;100516.22;;;20.03;58.32
10008;BME280;5043;41.766;26.204;2023-04-21T08:56:55;100487.47;;;19.97;58.79
10008;BME280;5043;41.766;26.204;2023-04-21T08:59:21;100513.63;;;20.25;59.52
10008;BME280;5043;41.766;26.204;2023-04-21T09:02:09;100497.16;;;20.36;56.10
10008;BME280;5043;41.766;26.204;2023-04-21T09:04:43;100500.06;;;20.49;58.63
10008;BME280;5043;41.766;26.204;2023-04-21T09:07:09;100504.81;;;20.62;53.48
10008;BME280;5043;41.766;26.204;2023-04-21T09:09:53;100512.28;;;20.75;53.01
10008;BME280;5043;41.766;26.204;2023-04-21T09:12:19;100491.63;;;20.75;51.13
10008;BME280;5043;41.766;26.204;2023-04-21T09:14:45;100489.69;;;20.69;53.04
10008;BME280;5043;41.766;26.204;2023-04-21T09:17:10;100429.59;;;20.41;52.64
10008;BME280;5043;41.766;26.204;2023-04-21T09:19:36;100506.13;;;20.89;50.77
10008;BME280;5043;41.766;26.204;2023-04-21T09:22:02;100501.31;;;20.99;50.78
10008;BME280;5043;41.766;26.204;2023-04-21T09:24:27;100465.69;;;20.90;51.01
10008;BME280;5043;41.766;26.204;2023-04-21T09:26:53;100480.25;;;21.10;51.58
10008;BME280;5043;41.766;26.204;2023-04-21T09:29:22;100497.94;;;21.19;49.73
10008;BME280;5043;41.766;26.204;2023-04-21T09:31:51;100482.50;;;21.36;49.06
10008;BME280;5043;41.766;26.204;2023-04-21T09:34:25;100404.72;;;20.84;48.72
10008;BME280;5043;41.766;26.204;2023-04-21T09:36:59;100496.09;;;21.35;48.72
10008;BME280;5043;41.766;26.204;2023-04-21T09:39:25;100481.50;;;21.52;49.05
10008;BME280;5043;41.766;26.204;2023-04-21T09:41:51;100401.06;;;21.29;47.98
10008;BME280;5043;41.766;26.204;2023-04-21T09:44:17;100423.13;;;21.75;47.48
10008;BME280;5043;41.766;26.204;2023-04-21T09:46:47;100483.91;;;22.12;45.63
10008;BME280;5043;41.766;26.204;2023-04-21T09:49:16;100457.09;;;22.18;46.00
10008;BME280;5043;41.766;26.204;2023-04-21T09:51:42;100469.06;;;22.16;47.37
10008;BME280;5043;41.766;26.204;2023-04-21T09:54:18;100419.09;;;22.21;46.33
10008;BME280;5043;41.766;26.204;2023-04-21T09:56:48;100447.88;;;22.48;44.88
10008;BME280;5043;41.766;26.204;2023-04-21T09:59:18;100404.84;;;22.48;45.97
10008;BME280;5043;41.766;26.204;2023-04-21T10:01:47;100441.56;;;22.84;43.43
10008;BME280;5043;41.766;26.204;2023-04-21T10:04:14;100438.06;;;22.83;44.14
10008;BME280;5043;41.766;26.204;2023-04-21T10:06:40;100434.53;;;22.83;41.06
10008;BME280;5043;41.766;26.204;2023-04-21T10:09:07;100430.25;;;22.67;42.81
10008;BME280;5043;41.766;26.204;2023-04-21T10:11:34;100429.78;;;22.85;43.37
10008;BME280;5043;41.766;26.204;2023-04-21T10:14:01;100394.50;;;22.67;43.18
10008;BME280;5043;41.766;26.204;2023-04-21T10:16:27;100429.16;;;22.83;40.38
10008;BME280;5043;41.766;26.204;2023-04-21T10:18:53;100433.31;;;22.85;40.36
10008;BME280;5043;41.766;26.204;2023-04-21T10:21:20;100422.97;;;22.89;40.93
10008;BME280;5043;41.766;26.204;2023-04-21T10:23:47;100398.50;;;22.56;41.33
10008;BME280;5043;41.766;26.204;2023-04-21T10:29:04;100416.03;;;23.01;39.44
10008;BME280;5043;41.766;26.204;2023-04-21T10:41:57;100421.47;;;23.42;36.81
10008;BME280;5043;41.766;26.204;2023-04-21T10:44:23;100400.53;;;23.37;36.71
10008;BME280;5043;41.766;26.204;2023-04-21T10:46:52;100415.75;;;23.58;37.80
10008;BME280;5043;41.766;26.204;2023-04-21T10:54:21;100411.44;;;23.76;36.39
10008;BME280;5043;41.766;26.204;2023-04-21T10:56:50;100407.41;;;24.07;36.74
10008;BME280;5043;41.766;26.204;2023-04-21T10:59:18;100400.13;;;24.01;36.25
10008;BME280;5043;41.766;26.204;2023-04-21T11:01:44;100399.91;;;23.96;35.57
10008;BME280;5043;41.766;26.204;2023-04-21T11:04:16;100403.44;;;24.03;34.93
10008;BME280;5043;41.766;26.204;2023-04-21T11:06:47;100409.53;;;24.31;34.09
10008;BME280;5043;41.766;26.204;2023-04-21T11:09:29;100401.63;;;24.62;32.98
10008;BME280;5043;41.766;26.204;2023-04-21T11:12:02;100406.81;;;24.70;32.59
10008;BME280;5043;41.766;26.204;2023-04-21T11:14:29;100415.94;;;24.95;31.56
10008;BME280;5043;41.766;26.204;2023-04-21T11:16:55;100413.66;;;24.73;31.55
10008;BME280;5043;41.766;26.204;2023-04-21T11:19:20;100381.72;;;24.37;31.62
10008;BME280;5043;41.766;26.204;2023-04-21T11:21:53;100409.50;;;24.18;31.79
10008;BME280;5043;41.766;26.204;2023-04-21T11:24:20;100408.16;;;23.81;31.95
10008;BME280;5043;41.766;26.204;2023-04-21T11:26:46;100399.06;;;24.02;31.34
10008;BME280;5043;41.766;26.204;2023-04-21T11:29:12;100406.16;;;24.09;31.81
10008;BME280;5043;41.766;26.204;2023-04-21T11:31:40;100399.53;;;24.12;32.05
10008;BME280;5043;41.766;26.204;2023-04-21T11:34:07;100378.81;;;24.25;31.57
10008;BME280;5043;41.766;26.204;2023-04-21T11:36:38;100396.84;;;24.25;30.24
10008;BME280;5043;41.766;26.204;2023-04-21T11:39:09;100412.63;;;24.41;29.49
10008;BME280;5043;41.766;26.204;2023-04-21T11:41:44;100388.78;;;24.51;28.98
10008;BME280;5043;41.766;26.204;2023-04-21T11:44:33;100390.91;;;25.33;28.09
10008;BME280;5043;41.766;26.204;2023-04-21T11:47:29;100382.03;;;25.70;28.12
10008;BME280;5043;41.766;26.204;2023-04-21T11:49:56;100389.44;;;26.25;28.79
10008;BME280;5043;41.766;26.204;2023-04-21T11:52:34;100354.16;;;26.14;28.51
10008;BME280;5043;41.766;26.204;2023-04-21T11:55:19;100380.81;;;26.59;28.25
10008;BME280;5043;41.766;26.204;2023-04-21T11:57:45;100374.66;;;26.95;27.58
10008;BME280;5043;41.766;26.204;2023-04-21T12:00:12;100374.56;;;27.20;28.25
10008;BME280;5043;41.766;26.204;2023-04-21T12:02:41;100372.63;;;26.91;28.28
10008;BME280;5043;41.766;26.204;2023-04-21T12:05:08;100371.13;;;26.95;28.42
10008;BME280;5043;41.766;26.204;2023-04-21T12:07:43;100364.97;;;27.24;27.68
10008;BME280;5043;41.766;26.204;2023-04-21T12:10:21;100369.75;;;27.04;27.20
10008;BME280;5043;41.766;26.204;2023-04-21T12:12:46;100345.25;;;26.31;27.76
10008;BME280;5043;41.766;26.204;2023-04-21T12:15:18;100324.09;;;26.46;28.98
10008;BME280;5043;41.766;26.204;2023-04-21T12:17:49;100321.09;;;26.97;27.86
10008;BME280;5043;41.766;26.204;2023-04-21T12:20:16;100322.44;;;27.43;28.60
10008;BME280;5043;41.766;26.204;2023-04-21T12:22:43;100326.84;;;27.97;27.88
10008;BME280;5043;41.766;26.204;2023-04-21T12:25:08;100368.22;;;28.22;26.83
10008;BME280;5043;41.766;26.204;2023-04-21T12:27:34;100348.88;;;27.88;27.28
10008;BME280;5043;41.766;26.204;2023-04-21T12:30:00;100350.63;;;27.35;27.37
10008;BME280;5043;41.766;26.204;2023-04-21T12:32:26;100363.00;;;26.95;26.63
10008;BME280;5043;41.766;26.204;2023-04-21T12:34:51;100354.34;;;26.86;27.19
10008;BME280;5043;41.766;26.204;2023-04-21T12:37:17;100326.25;;;27.35;26.50
10008;BME280;5043;41.766;26.204;2023-04-21T12:39:43;100371.22;;;28.55;25.45
10008;BME280;5043;41.766;26.204;2023-04-21T12:42:08;100353.94;;;29.07;24.52
10008;BME280;5043;41.766;26.204;2023-04-21T12:44:34;100355.22;;;29.40;24.04
10008;BME280;5043;41.766;26.204;2023-04-21T12:47:00;100353.50;;;30.23;22.96
10008;BME280;5043;41.766;26.204;2023-04-21T12:49:25;100345.25;;;30.18;22.88
10008;BME280;5043;41.766;26.204;2023-04-21T12:51:52;100248.56;;;30.71;22.28
10008;BME280;5043;41.766;26.204;2023-04-21T12:54:17;100357.81;;;32.26;21.31
10008;BME280;5043;41.766;26.204;2023-04-21T12:56:43;100354.25;;;31.45;22.46
10008;BME280;5043;41.766;26.204;2023-04-21T12:59:09;100353.00;;;29.93;24.11
10008;BME280;5043;41.766;26.204;2023-04-21T13:01:36;100364.00;;;29.07;25.95